createdAt,value
2022-09-29T00:01:43.317Z,99.90
2022-09-29T00:04:13.250Z,99.90
2022-09-29T00:06:40.012Z,99.90
2022-09-29T00:09:06.800Z,99.90
2022-09-29T00:11:33.609Z,99.90
2022-09-29T00:14:00.461Z,99.90
2022-09-29T00:16:27.289Z,99.90
2022-09-29T00:18:54.440Z,99.90
2022-09-29T00:21:21.230Z,99.90
2022-09-29T00:23:48.301Z,99.90
2022-09-29T00:26:15.343Z,99.90
2022-09-29T00:28:42.706Z,99.90
2022-09-29T00:31:10.016Z,99.90
2022-09-29T00:33:37.031Z,99.90
2022-09-29T00:36:04.689Z,99.90
2022-09-29T00:38:31.606Z,99.90
2022-09-29T00:40:58.523Z,99.90
2022-09-29T00:43:45.453Z,99.90
2022-09-29T00:46:12.725Z,99.90
2022-09-29T00:48:39.466Z,99.90
2022-09-29T00:51:06.228Z,99.90
2022-09-29T00:53:32.971Z,99.90
2022-09-29T00:56:10.611Z,99.90
2022-09-29T00:58:41.170Z,99.90
2022-09-29T01:01:08.044Z,99.90
2022-09-29T01:03:37.333Z,99.90
2022-09-29T01:06:13.069Z,99.90
2022-09-29T01:08:41.270Z,99.90
2022-09-29T01:11:08.009Z,99.90
2022-09-29T01:13:34.836Z,99.90
2022-09-29T01:16:01.706Z,99.90
2022-09-29T01:18:31.365Z,99.90
2022-09-29T01:21:01.773Z,99.90
2022-09-29T01:23:28.885Z,99.90
2022-09-29T01:26:18.461Z,99.90
2022-09-29T01:28:51.307Z,99.90
2022-09-29T01:31:27.780Z,99.90
2022-09-29T01:34:14.924Z,99.90
2022-09-29T01:37:08.164Z,99.90
2022-09-29T01:39:36.076Z,99.90
2022-09-29T01:42:12.338Z,99.90
2022-09-29T01:44:51.357Z,99.90
2022-09-29T01:47:22.794Z,99.90
2022-09-29T01:50:12.870Z,99.90
2022-09-29T01:52:41.758Z,99.90
2022-09-29T01:55:09.395Z,99.90
2022-09-29T01:57:42.222Z,99.90
2022-09-29T02:00:10.354Z,99.90
2022-09-29T02:02:38.267Z,99.90
2022-09-29T02:05:05.581Z,99.90
2022-09-29T02:07:34.084Z,99.90
2022-09-29T02:10:02.093Z,99.90
2022-09-29T02:12:29.360Z,99.90
2022-09-29T02:14:56.102Z,99.90
2022-09-29T02:17:24.335Z,99.90
2022-09-29T02:20:03.069Z,99.90
2022-09-29T02:22:32.107Z,99.90
2022-09-29T02:24:59.358Z,99.90
2022-09-29T02:27:36.409Z,99.90
2022-09-29T02:30:05.625Z,99.90
2022-09-29T02:32:32.886Z,99.90
2022-09-29T02:34:59.751Z,99.90
2022-09-29T02:37:34.299Z,99.90
2022-09-29T02:40:15.270Z,99.90
2022-09-29T02:42:44.538Z,99.90
2022-09-29T02:45:14.301Z,99.90
2022-09-29T02:48:00.032Z,99.90
2022-09-29T02:50:26.752Z,99.90
2022-09-29T02:53:10.879Z,99.90
2022-09-29T02:55:46.852Z,99.90
2022-09-29T02:58:15.883Z,99.90
2022-09-29T03:00:42.860Z,99.90
2022-09-29T03:03:09.641Z,99.90
2022-09-29T03:05:36.400Z,99.90
2022-09-29T03:08:03.147Z,99.90
2022-09-29T03:10:30.502Z,99.90
2022-09-29T03:12:57.338Z,99.90
2022-09-29T03:15:24.551Z,99.90
2022-09-29T03:17:51.270Z,99.90
2022-09-29T03:20:18.105Z,99.90
2022-09-29T03:22:47.358Z,99.90
2022-09-29T03:25:14.828Z,99.90
2022-09-29T03:27:41.681Z,99.90
2022-09-29T03:30:08.881Z,99.90
2022-09-29T03:32:35.599Z,99.90
2022-09-29T03:35:02.355Z,99.90
2022-09-29T03:37:29.176Z,99.90
2022-09-29T03:39:55.939Z,99.90
2022-09-29T03:42:24.380Z,99.90
2022-09-29T03:44:51.165Z,99.90
2022-09-29T03:47:18.011Z,99.90
2022-09-29T03:49:44.766Z,99.90
2022-09-29T03:52:11.494Z,99.90
2022-09-29T03:54:38.301Z,99.90
2022-09-29T03:57:05.096Z,99.90
2022-09-29T03:59:31.862Z,99.90
2022-09-29T04:01:58.685Z,99.90
2022-09-29T04:04:25.491Z,99.90
2022-09-29T04:06:52.289Z,99.90
2022-09-29T04:09:19.138Z,99.90
2022-09-29T04:11:45.985Z,99.90
2022-09-29T04:14:12.735Z,99.90
2022-09-29T04:16:39.459Z,99.90
2022-09-29T04:19:06.192Z,99.90
2022-09-29T04:21:32.933Z,99.90
2022-09-29T04:23:59.673Z,99.90
2022-09-29T04:26:26.466Z,99.90
2022-09-29T04:28:53.193Z,99.90
2022-09-29T04:31:19.935Z,99.90
2022-09-29T04:33:46.685Z,99.90
2022-09-29T04:36:13.487Z,99.90
2022-09-29T04:38:40.253Z,99.90
2022-09-29T04:41:07.017Z,99.90
2022-09-29T04:43:33.827Z,99.90
2022-09-29T04:46:04.343Z,99.90
2022-09-29T04:48:35.446Z,99.90
2022-09-29T04:51:02.715Z,99.90
2022-09-29T04:53:29.482Z,99.90
2022-09-29T04:55:56.280Z,99.90
2022-09-29T04:58:23.012Z,99.90
2022-09-29T05:00:49.822Z,99.90
2022-09-29T05:03:16.687Z,99.90
2022-09-29T05:05:43.441Z,99.90
2022-09-29T05:08:10.278Z,99.90
2022-09-29T05:10:37.093Z,99.90
2022-09-29T05:13:03.833Z,99.90
2022-09-29T05:15:30.588Z,99.90
2022-09-29T05:17:58.057Z,99.90
2022-09-29T05:20:24.804Z,99.90
2022-09-29T05:22:51.546Z,99.90
2022-09-29T05:25:18.322Z,99.90
2022-09-29T05:27:45.118Z,99.90
2022-09-29T05:30:12.146Z,99.90
2022-09-29T05:32:38.959Z,99.90
2022-09-29T05:35:06.142Z,99.90
2022-09-29T05:37:33.021Z,99.90
2022-09-29T05:40:00.023Z,99.90
2022-09-29T05:42:28.093Z,99.90
2022-09-29T05:44:55.733Z,99.90
2022-09-29T05:47:24.985Z,99.90
2022-09-29T05:49:53.081Z,99.90
2022-09-29T05:52:20.157Z,99.90
2022-09-29T05:54:51.208Z,99.90
2022-09-29T05:57:19.321Z,99.90
2022-09-29T05:59:46.135Z,99.90
2022-09-29T06:02:13.763Z,99.90
2022-09-29T06:04:40.985Z,99.90
2022-09-29T06:07:08.041Z,99.90
2022-09-29T06:09:36.283Z,99.90
2022-09-29T06:12:03.349Z,99.90
2022-09-29T06:14:30.263Z,99.90
2022-09-29T06:16:57.138Z,99.90
2022-09-29T06:19:23.988Z,99.90
2022-09-29T06:21:50.809Z,99.90
2022-09-29T06:24:17.728Z,99.90
2022-09-29T06:26:44.611Z,99.90
2022-09-29T06:29:11.569Z,99.90
2022-09-29T06:31:39.042Z,99.90
2022-09-29T06:34:05.996Z,99.90
2022-09-29T06:37:01.285Z,99.90
2022-09-29T06:39:28.213Z,99.90
2022-09-29T06:41:56.535Z,99.90
2022-09-29T06:44:24.760Z,99.90
2022-09-29T06:46:51.672Z,99.90
2022-09-29T06:49:18.789Z,99.90
2022-09-29T06:51:46.750Z,99.90
2022-09-29T06:54:14.441Z,99.90
2022-09-29T06:56:41.800Z,99.90
2022-09-29T06:59:11.923Z,99.90
2022-09-29T07:01:45.459Z,99.90
2022-09-29T07:04:12.506Z,99.90
2022-09-29T07:06:45.988Z,99.90
2022-09-29T07:09:22.805Z,99.90
2022-09-29T07:11:53.210Z,99.90
2022-09-29T07:14:28.911Z,99.90
2022-09-29T07:16:56.482Z,99.90
2022-09-29T07:22:11.904Z,99.90
2022-09-29T07:24:45.103Z,99.90
2022-09-29T07:27:12.265Z,99.90
2022-09-29T07:29:42.898Z,99.90
2022-09-29T07:32:26.807Z,99.90
2022-09-29T07:34:55.124Z,99.90
2022-09-29T07:37:22.363Z,99.90
2022-09-29T07:39:52.577Z,99.90
2022-09-29T07:43:01.498Z,99.90
2022-09-29T07:45:28.400Z,99.90
2022-09-29T07:47:59.198Z,99.90
2022-09-29T07:50:26.079Z,99.90
2022-09-29T07:52:55.391Z,99.90
2022-09-29T07:55:28.019Z,99.90
2022-09-29T07:57:54.921Z,99.90
2022-09-29T08:00:26.907Z,99.90
2022-09-29T08:02:59.081Z,99.90
2022-09-29T08:05:29.284Z,99.90
2022-09-29T08:07:58.100Z,99.90
2022-09-29T08:10:24.920Z,99.90
2022-09-29T08:12:51.846Z,99.90
2022-09-29T08:15:18.661Z,99.90
2022-09-29T08:17:56.437Z,99.90
2022-09-29T08:20:23.386Z,99.90
2022-09-29T08:22:51.125Z,99.90
2022-09-29T08:25:18.082Z,99.90
2022-09-29T08:27:54.690Z,99.90
2022-09-29T08:30:23.060Z,99.90
2022-09-29T08:32:53.556Z,99.90
2022-09-29T08:35:29.929Z,99.90
2022-09-29T08:37:59.197Z,99.90
2022-09-29T08:40:29.736Z,99.90
2022-09-29T08:43:05.999Z,99.90
2022-09-29T08:45:33.851Z,99.90
2022-09-29T08:48:20.281Z,99.90
2022-09-29T08:50:59.282Z,99.90
2022-09-29T08:53:29.244Z,99.90
2022-09-29T08:55:57.560Z,99.90
2022-09-29T08:58:24.431Z,99.90
2022-09-29T09:01:03.833Z,99.90
2022-09-29T09:03:37.214Z,99.90
2022-09-29T09:06:13.275Z,99.90
2022-09-29T09:08:58.648Z,99.90
2022-09-29T09:11:30.397Z,99.90
2022-09-29T09:14:15.955Z,99.90
2022-09-29T09:17:07.270Z,99.90
2022-09-29T09:19:38.243Z,99.90
2022-09-29T09:22:27.152Z,99.90
2022-09-29T09:25:22.362Z,99.90
2022-09-29T09:27:50.156Z,99.90
2022-09-29T09:30:17.421Z,99.90
2022-09-29T09:32:55.080Z,99.90
2022-09-29T09:35:23.996Z,99.90
2022-09-29T09:37:51.408Z,99.90
2022-09-29T09:40:20.588Z,99.90
2022-09-29T09:42:53.946Z,99.90
2022-09-29T09:45:37.822Z,99.90
2022-09-29T09:48:31.411Z,99.90
2022-09-29T09:51:21.066Z,99.90
2022-09-29T09:53:48.368Z,99.90
2022-09-29T09:56:18.688Z,99.90
2022-09-29T09:58:55.322Z,99.90
2022-09-29T10:01:23.809Z,99.90
2022-09-29T10:03:50.653Z,99.90
2022-09-29T10:06:17.529Z,99.90
2022-09-29T10:08:44.412Z,99.90
2022-09-29T10:11:34.261Z,99.90
2022-09-29T10:14:13.826Z,99.90
2022-09-29T10:17:03.037Z,99.90
2022-09-29T10:19:41.656Z,99.90
2022-09-29T10:22:14.716Z,98.70
2022-09-29T10:24:41.469Z,96.60
2022-09-29T10:27:08.228Z,95.60
2022-09-29T10:29:38.591Z,95.80
2022-09-29T10:32:22.709Z,93.60
2022-09-29T10:34:50.668Z,92.30
2022-09-29T10:37:17.393Z,90.40
2022-09-29T10:39:44.858Z,91.10
2022-09-29T10:42:21.119Z,92.60
2022-09-29T10:44:54.883Z,93.70
2022-09-29T10:47:22.026Z,95.00
2022-09-29T10:49:48.971Z,95.10
2022-09-29T10:52:23.232Z,96.10
2022-09-29T10:54:58.318Z,96.70
2022-09-29T10:57:26.170Z,96.20
2022-09-29T10:59:53.961Z,97.50
2022-09-29T11:02:25.347Z,97.10
2022-09-29T11:04:52.597Z,97.80
2022-09-29T11:07:19.391Z,96.60
2022-09-29T11:09:46.345Z,95.00
2022-09-29T11:12:32.840Z,95.10
2022-09-29T11:15:00.243Z,94.10
2022-09-29T11:17:39.272Z,94.10
2022-09-29T11:20:07.180Z,96.10
2022-09-29T11:22:43.348Z,95.00
2022-09-29T11:25:28.786Z,94.00
2022-09-29T11:28:13.997Z,93.90
2022-09-29T11:30:49.836Z,93.20
2022-09-29T11:33:16.585Z,93.70
2022-09-29T11:35:49.190Z,91.90
2022-09-29T11:38:26.144Z,90.80
2022-09-29T11:41:09.777Z,88.10
2022-09-29T11:43:44.459Z,85.60
2022-09-29T11:46:11.269Z,84.70
2022-09-29T11:48:44.110Z,83.40
2022-09-29T11:51:16.753Z,80.60
2022-09-29T11:54:02.779Z,80.30
2022-09-29T11:56:38.605Z,80.20
2022-09-29T11:59:08.950Z,81.10
2022-09-29T12:01:39.961Z,84.00
2022-09-29T12:04:10.121Z,83.70
2022-09-29T12:06:52.291Z,83.90
2022-09-29T12:09:41.157Z,82.90
2022-09-29T12:12:28.828Z,84.40
2022-09-29T12:14:55.692Z,84.80
2022-09-29T12:17:22.495Z,85.50
2022-09-29T12:19:52.626Z,85.60
2022-09-29T12:22:22.250Z,86.40
2022-09-29T12:24:51.696Z,86.80
2022-09-29T12:27:20.025Z,87.40
2022-09-29T12:29:57.771Z,87.50
2022-09-29T12:32:28.183Z,87.90
2022-09-29T12:34:59.380Z,87.50
2022-09-29T12:37:28.495Z,88.10
2022-09-29T12:39:59.596Z,88.00
2022-09-29T12:42:35.397Z,87.50
2022-09-29T12:45:34.993Z,87.80
2022-09-29T12:48:02.201Z,87.90
2022-09-29T12:50:30.867Z,88.10
2022-09-29T12:53:08.423Z,86.90
2022-09-29T12:55:36.014Z,87.90
2022-09-29T12:58:04.797Z,85.70
2022-09-29T13:00:32.326Z,85.10
2022-09-29T13:03:05.132Z,87.60
2022-09-29T13:05:33.611Z,87.40
2022-09-29T13:08:19.509Z,87.30
2022-09-29T13:10:52.451Z,85.60
2022-09-29T13:13:38.088Z,89.60
2022-09-29T13:16:07.666Z,88.00
2022-09-29T13:18:44.906Z,88.40
2022-09-29T13:21:29.996Z,89.20
2022-09-29T13:24:05.698Z,85.80
2022-09-29T13:26:39.078Z,86.50
2022-09-29T13:29:10.957Z,84.60
2022-09-29T13:31:38.313Z,86.10
2022-09-29T13:34:06.018Z,87.80
2022-09-29T13:36:39.897Z,87.80
2022-09-29T13:39:07.269Z,88.00
2022-09-29T13:41:38.156Z,89.20
2022-09-29T13:44:05.917Z,89.10
2022-09-29T13:46:32.660Z,89.90
2022-09-29T13:49:08.466Z,88.10
2022-09-29T13:51:43.036Z,88.90
2022-09-29T13:54:22.239Z,90.20
2022-09-29T13:57:07.746Z,91.00
2022-09-29T13:59:34.693Z,91.10
2022-09-29T14:02:01.527Z,91.20
2022-09-29T14:04:37.724Z,91.30
2022-09-29T14:07:05.058Z,91.00
2022-09-29T14:09:33.654Z,91.00
2022-09-29T14:12:02.739Z,90.50
2022-09-29T14:14:30.896Z,90.50
2022-09-29T14:17:14.998Z,90.70
2022-09-29T14:19:54.073Z,91.00
2022-09-29T14:22:30.031Z,90.50
2022-09-29T14:25:09.898Z,90.60
2022-09-29T14:27:36.657Z,90.80
2022-09-29T14:30:09.573Z,91.50
2022-09-29T14:32:42.144Z,92.50
2022-09-29T14:35:13.925Z,92.70
2022-09-29T14:37:40.666Z,93.00
2022-09-29T14:40:26.677Z,93.00
2022-09-29T14:43:03.640Z,94.40
2022-09-29T14:45:50.484Z,93.90
2022-09-29T14:48:38.644Z,94.50
2022-09-29T14:51:47.648Z,93.30
2022-09-29T14:54:18.392Z,95.00
2022-09-29T14:56:52.458Z,94.30
2022-09-29T14:59:22.790Z,93.90
2022-09-29T15:02:00.973Z,93.70
2022-09-29T15:04:28.055Z,95.30
2022-09-29T15:06:54.936Z,93.50
2022-09-29T15:09:24.805Z,93.70
2022-09-29T15:11:52.876Z,94.20
2022-09-29T15:14:29.956Z,93.60
2022-09-29T15:16:59.803Z,94.20
2022-09-29T15:19:45.060Z,93.70
2022-09-29T15:22:14.600Z,93.90
2022-09-29T15:24:41.325Z,94.00
2022-09-29T15:27:09.494Z,94.60
2022-09-29T15:29:36.351Z,94.10
2022-09-29T15:32:03.301Z,93.80
2022-09-29T15:34:30.121Z,94.20
2022-09-29T15:36:56.871Z,94.40
2022-09-29T15:39:33.409Z,94.60
2022-09-29T15:42:02.149Z,94.90
2022-09-29T15:44:29.202Z,94.90
2022-09-29T15:46:58.873Z,95.20
2022-09-29T15:49:26.319Z,95.80
2022-09-29T15:51:59.685Z,96.00
2022-09-29T15:54:27.165Z,96.70
2022-09-29T15:57:12.794Z,97.30
2022-09-29T15:59:41.826Z,97.70
2022-09-29T16:02:13.054Z,99.20
2022-09-29T16:04:39.852Z,99.90
2022-09-29T16:07:06.853Z,99.90
2022-09-29T16:09:33.625Z,99.90
2022-09-29T16:12:00.628Z,99.90
2022-09-29T16:14:28.233Z,99.90
2022-09-29T16:16:57.516Z,99.90
2022-09-29T16:19:27.806Z,99.90
2022-09-29T16:21:55.674Z,99.90
2022-09-29T16:24:28.418Z,99.90
2022-09-29T16:26:55.802Z,99.90
2022-09-29T16:29:23.817Z,99.90
2022-09-29T16:31:50.765Z,99.90
2022-09-29T16:34:20.674Z,99.90
2022-09-29T16:36:48.246Z,99.90
2022-09-29T16:39:19.344Z,99.90
2022-09-29T16:41:53.560Z,99.90
2022-09-29T16:44:32.637Z,99.90
2022-09-29T16:47:33.040Z,99.90
2022-09-29T16:50:05.177Z,99.90
2022-09-29T16:52:41.600Z,99.90
2022-09-29T16:55:14.554Z,99.90
2022-09-29T16:58:00.429Z,99.90
2022-09-29T17:00:27.268Z,99.90
2022-09-29T17:02:55.576Z,99.90
2022-09-29T17:05:22.983Z,99.90
2022-09-29T17:07:49.854Z,99.90
2022-09-29T17:10:17.524Z,99.90
2022-09-29T17:12:44.635Z,99.90
2022-09-29T17:15:17.891Z,99.90
2022-09-29T17:17:45.297Z,99.90
2022-09-29T17:20:13.440Z,99.90
2022-09-29T17:22:40.842Z,99.90
2022-09-29T17:25:07.926Z,99.90
2022-09-29T17:27:53.437Z,99.90
2022-09-29T17:30:22.852Z,99.90
2022-09-29T17:32:50.099Z,99.90
2022-09-29T17:35:17.317Z,99.90
2022-09-29T17:37:46.955Z,99.90
2022-09-29T17:40:13.801Z,99.90
2022-09-29T17:42:40.900Z,99.90
2022-09-29T17:45:07.780Z,99.90
2022-09-29T17:47:37.351Z,99.90
2022-09-29T17:50:12.597Z,99.90
2022-09-29T17:52:39.671Z,99.90
2022-09-29T17:55:12.016Z,99.90
2022-09-29T17:57:39.070Z,99.90
2022-09-29T18:00:21.329Z,99.90
2022-09-29T18:02:48.632Z,99.90
2022-09-29T18:05:15.964Z,99.90
2022-09-29T18:07:43.102Z,99.90
2022-09-29T18:10:29.342Z,99.90
2022-09-29T18:12:56.251Z,99.90
2022-09-29T18:15:23.205Z,99.90
2022-09-29T18:17:49.953Z,99.90
2022-09-29T18:20:17.745Z,99.90
2022-09-29T18:22:46.109Z,99.90
2022-09-29T18:25:13.430Z,99.90
2022-09-29T18:27:40.172Z,99.90
2022-09-29T18:30:07.823Z,99.90
2022-09-29T18:32:34.588Z,99.90
2022-09-29T18:35:01.369Z,99.90
2022-09-29T18:37:28.107Z,99.90
2022-09-29T18:39:54.877Z,99.90
2022-09-29T18:42:22.520Z,99.90
2022-09-29T18:44:51.213Z,99.90
2022-09-29T18:47:17.941Z,99.90
2022-09-29T18:49:44.667Z,99.90
2022-09-29T18:52:11.411Z,99.90
2022-09-29T18:54:38.415Z,99.90
2022-09-29T18:57:07.262Z,99.90
2022-09-29T18:59:35.467Z,99.90
2022-09-29T19:02:02.336Z,99.90
2022-09-29T19:04:30.333Z,99.90
2022-09-29T19:06:57.150Z,99.90
2022-09-29T19:09:24.092Z,99.90
2022-09-29T19:11:50.999Z,99.90
2022-09-29T19:14:17.767Z,99.90
2022-09-29T19:16:45.019Z,99.90
2022-09-29T19:19:12.062Z,99.90
2022-09-29T19:21:38.907Z,99.90
2022-09-29T19:24:05.630Z,99.90
2022-09-29T19:26:32.354Z,99.90
2022-09-29T19:28:59.141Z,99.90
2022-09-29T19:31:26.023Z,99.90
2022-09-29T19:33:53.023Z,99.90
2022-09-29T19:36:20.410Z,99.90
2022-09-29T19:38:47.247Z,99.90
2022-09-29T19:41:14.984Z,99.90
2022-09-29T19:43:41.763Z,99.90
2022-09-29T19:46:09.467Z,99.90
2022-09-29T19:48:36.589Z,99.90
2022-09-29T19:51:21.679Z,99.90
2022-09-29T19:53:49.631Z,99.90
2022-09-29T19:56:16.814Z,99.90
2022-09-29T19:58:43.686Z,99.90
2022-09-29T20:01:10.791Z,99.90
2022-09-29T20:03:37.554Z,99.90
2022-09-29T20:06:06.404Z,99.90
2022-09-29T20:08:33.247Z,99.90
2022-09-29T20:11:06.867Z,99.90
2022-09-29T20:13:33.706Z,99.90
2022-09-29T20:16:00.635Z,99.90
2022-09-29T20:18:28.200Z,99.90
2022-09-29T20:20:54.933Z,99.90
2022-09-29T20:23:24.397Z,99.90
2022-09-29T20:25:59.146Z,99.90
2022-09-29T20:28:26.235Z,99.90
2022-09-29T20:30:58.314Z,99.90
2022-09-29T20:33:25.839Z,99.90
2022-09-29T20:35:52.603Z,99.90
2022-09-29T20:38:19.566Z,99.90
2022-09-29T20:40:47.218Z,99.90
2022-09-29T20:43:14.410Z,99.90
2022-09-29T20:45:41.436Z,99.90
2022-09-29T20:48:08.216Z,99.90
2022-09-29T20:50:35.326Z,99.90
2022-09-29T20:53:02.772Z,99.90
2022-09-29T20:55:29.497Z,99.90
2022-09-29T20:57:57.987Z,99.90
2022-09-29T21:00:27.765Z,99.90
2022-09-29T21:02:54.563Z,99.90
2022-09-29T21:05:21.321Z,99.90
2022-09-29T21:07:48.078Z,99.90
2022-09-29T21:10:14.821Z,99.90
2022-09-29T21:12:41.566Z,99.90
2022-09-29T21:15:08.476Z,99.90
2022-09-29T21:17:35.261Z,99.90
2022-09-29T21:20:02.105Z,99.90
2022-09-29T21:22:28.835Z,99.90
2022-09-29T21:24:55.583Z,99.90
2022-09-29T21:27:22.381Z,99.90
2022-09-29T21:29:49.111Z,99.90
2022-09-29T21:32:15.862Z,99.90
2022-09-29T21:34:42.593Z,99.90
2022-09-29T21:37:10.220Z,99.90
2022-09-29T21:39:37.192Z,99.90
2022-09-29T21:42:04.473Z,99.90
2022-09-29T21:44:31.289Z,99.90
2022-09-29T21:46:58.024Z,99.90
2022-09-29T21:49:24.952Z,99.90
2022-09-29T21:51:51.768Z,99.90
2022-09-29T21:54:23.011Z,99.90
2022-09-29T21:56:50.063Z,99.90
2022-09-29T21:59:17.434Z,99.90
2022-09-29T22:01:44.826Z,99.90
2022-09-29T22:04:11.726Z,99.90
2022-09-29T22:06:38.675Z,99.90
2022-09-29T22:09:06.254Z,99.90
2022-09-29T22:11:33.494Z,99.90
2022-09-29T22:14:00.513Z,99.90
2022-09-29T22:16:29.268Z,99.90
2022-09-29T22:19:18.783Z,99.90
2022-09-29T22:21:43.436Z,99.90
2022-09-29T22:24:11.324Z,99.90
2022-09-29T22:26:38.720Z,99.90
2022-09-29T22:29:08.466Z,99.90
2022-09-29T22:31:35.330Z,99.90
2022-09-29T22:34:02.571Z,99.90
2022-09-29T22:36:30.404Z,99.90
2022-09-29T22:38:57.432Z,99.90
2022-09-29T22:41:24.256Z,99.90
2022-09-29T22:43:52.320Z,99.90
2022-09-29T22:46:19.538Z,99.90
2022-09-29T22:48:46.321Z,99.90
2022-09-29T22:51:13.121Z,99.90
2022-09-29T22:53:39.998Z,99.90
2022-09-29T22:56:11.526Z,99.90
2022-09-29T22:58:38.700Z,99.90
2022-09-29T23:01:06.652Z,99.90
2022-09-29T23:03:33.739Z,99.90
2022-09-29T23:06:00.553Z,99.90
2022-09-29T23:08:27.337Z,99.90
2022-09-29T23:10:56.017Z,99.90
2022-09-29T23:13:23.224Z,99.90
2022-09-29T23:15:53.015Z,99.90
2022-09-29T23:18:19.940Z,99.90
2022-09-29T23:20:46.708Z,99.90
2022-09-29T23:23:13.518Z,99.90
2022-09-29T23:25:46.555Z,99.90
2022-09-29T23:28:13.286Z,99.90
2022-09-29T23:30:40.018Z,99.90
2022-09-29T23:33:06.730Z,99.90
2022-09-29T23:35:33.482Z,99.90
2022-09-29T23:38:18.913Z,99.90
2022-09-29T23:40:46.469Z,99.90
2022-09-29T23:43:13.199Z,99.90
2022-09-29T23:45:39.959Z,99.90
2022-09-29T23:48:06.752Z,99.90
2022-09-29T23:50:33.473Z,99.90
2022-09-29T23:53:00.579Z,99.90
2022-09-29T23:55:27.393Z,99.90
2022-09-29T23:57:54.866Z,99.90
